createdAt,value
2023-04-03T00:01:20.425Z,3.20
2023-04-03T00:03:50.094Z,2.88
2023-04-03T00:06:19.830Z,3.15
2023-04-03T00:08:47.169Z,2.97
2023-04-03T00:11:14.657Z,3.00
2023-04-03T00:13:47.157Z,2.95
2023-04-03T00:16:16.905Z,3.00
2023-04-03T00:18:48.580Z,2.95
2023-04-03T00:21:16.604Z,3.10
2023-04-03T00:23:46.283Z,3.00
2023-04-03T00:26:15.986Z,2.63
2023-04-03T00:28:45.887Z,3.20
2023-04-03T00:31:16.887Z,3.05
2023-04-03T00:33:44.254Z,2.95
2023-04-03T00:36:12.293Z,3.20
2023-04-03T00:38:39.922Z,3.00
2023-04-03T00:41:10.413Z,3.38
2023-04-03T00:43:37.758Z,2.80
2023-04-03T00:46:05.399Z,2.78
2023-04-03T00:48:37.020Z,2.97
2023-04-03T00:51:10.672Z,3.33
2023-04-03T00:53:59.888Z,3.20
2023-04-03T00:56:32.036Z,2.92
2023-04-03T00:59:05.232Z,3.40
2023-04-03T01:01:35.488Z,3.53
2023-04-03T01:04:04.218Z,3.22
2023-04-03T01:06:36.312Z,3.20
2023-04-03T01:09:07.607Z,2.58
2023-04-03T01:11:34.961Z,3.35
2023-04-03T01:14:02.948Z,2.80
2023-04-03T01:16:32.869Z,2.90
2023-04-03T01:19:01.712Z,3.05
2023-04-03T01:21:59.600Z,2.95
2023-04-03T01:24:44.496Z,2.83
2023-04-03T01:27:14.403Z,2.78
2023-04-03T01:29:42.425Z,3.10
2023-04-03T01:32:12.004Z,2.95
2023-04-03T01:34:39.352Z,3.00
2023-04-03T01:37:09.091Z,3.00
2023-04-03T01:39:38.526Z,2.80
2023-04-03T01:42:08.145Z,2.80
2023-04-03T01:44:35.462Z,2.92
2023-04-03T01:47:02.755Z,2.83
2023-04-03T01:49:29.989Z,3.00
2023-04-03T01:51:57.249Z,3.00
2023-04-03T01:54:24.543Z,2.80
2023-04-03T01:56:52.217Z,3.05
2023-04-03T01:59:20.256Z,2.65
2023-04-03T02:01:47.603Z,2.92
2023-04-03T02:04:14.883Z,2.75
2023-04-03T02:06:42.231Z,2.90
2023-04-03T02:09:09.504Z,3.10
2023-04-03T02:11:36.866Z,3.08
2023-04-03T02:14:04.133Z,2.78
2023-04-03T02:16:33.611Z,2.53
2023-04-03T02:19:00.954Z,3.03
2023-04-03T02:21:28.880Z,2.60
2023-04-03T02:23:56.233Z,2.60
2023-04-03T02:26:26.038Z,2.92
2023-04-03T02:28:53.346Z,2.40
2023-04-03T02:31:21.829Z,2.40
2023-04-03T02:33:49.357Z,2.90
2023-04-03T02:36:16.790Z,2.53
2023-04-03T02:38:44.581Z,2.60
2023-04-03T02:41:16.964Z,2.40
2023-04-03T02:43:44.222Z,2.90
2023-04-03T02:46:11.531Z,2.83
2023-04-03T02:48:38.903Z,2.70
2023-04-03T02:51:06.174Z,2.90
2023-04-03T02:53:33.586Z,2.30
2023-04-03T02:56:00.831Z,2.72
2023-04-03T02:58:28.111Z,2.50
2023-04-03T03:00:55.489Z,2.72
2023-04-03T03:03:22.770Z,2.30
2023-04-03T03:05:50.210Z,2.53
2023-04-03T03:08:21.075Z,2.30
2023-04-03T03:10:48.406Z,2.40
2023-04-03T03:13:15.693Z,2.20
2023-04-03T03:15:43.019Z,2.35
2023-04-03T03:18:10.427Z,2.40
2023-04-03T03:20:37.983Z,3.00
2023-04-03T03:23:05.438Z,2.35
2023-04-03T03:25:35.165Z,2.40
2023-04-03T03:28:02.606Z,2.47
2023-04-03T03:30:29.870Z,2.40
2023-04-03T03:32:57.190Z,2.83
2023-04-03T03:35:24.645Z,2.30
2023-04-03T03:37:54.335Z,2.53
2023-04-03T03:40:21.617Z,2.42
2023-04-03T03:42:51.073Z,2.88
2023-04-03T03:45:20.702Z,2.80
2023-04-03T03:47:47.940Z,3.08
2023-04-03T03:50:15.590Z,2.83
2023-04-03T03:52:42.870Z,3.00
2023-04-03T03:55:12.728Z,2.60
2023-04-03T03:57:39.943Z,3.67
2023-04-03T04:00:08.208Z,3.45
2023-04-03T04:02:35.794Z,3.55
2023-04-03T04:05:03.337Z,3.67
2023-04-03T04:07:30.734Z,2.67
2023-04-03T04:09:57.980Z,3.42
2023-04-03T04:12:25.289Z,3.47
2023-04-03T04:14:54.884Z,2.72
2023-04-03T04:17:22.932Z,3.13
2023-04-03T04:19:50.505Z,4.75
2023-04-03T04:22:17.806Z,3.55
2023-04-03T04:24:45.058Z,3.75
2023-04-03T04:27:14.649Z,3.53
2023-04-03T04:29:41.906Z,3.38
2023-04-03T04:32:09.877Z,2.90
2023-04-03T04:34:39.369Z,3.03
2023-04-03T04:37:09.592Z,2.72
2023-04-03T04:39:36.952Z,2.42
2023-04-03T04:42:04.491Z,3.38
2023-04-03T04:44:31.852Z,3.03
2023-04-03T04:46:59.134Z,3.10
2023-04-03T04:49:28.876Z,2.85
2023-04-03T04:51:56.480Z,3.50
2023-04-03T04:54:23.837Z,3.03
2023-04-03T04:56:51.136Z,3.00
2023-04-03T04:59:19.996Z,3.22
2023-04-03T05:01:51.146Z,3.30
2023-04-03T05:04:21.198Z,3.42
2023-04-03T05:06:50.681Z,3.38
2023-04-03T05:09:21.189Z,3.17
2023-04-03T05:11:48.544Z,3.30
2023-04-03T05:14:21.426Z,3.28
2023-04-03T05:16:50.827Z,3.25
2023-04-03T05:19:18.771Z,3.40
2023-04-03T05:21:48.498Z,3.38
2023-04-03T05:24:19.026Z,3.58
2023-04-03T05:26:48.555Z,3.33
2023-04-03T05:29:16.015Z,3.58
2023-04-03T05:31:43.368Z,3.45
2023-04-03T05:34:11.010Z,3.70
2023-04-03T05:36:38.264Z,3.65
2023-04-03T05:39:08.138Z,3.58
2023-04-03T05:41:37.996Z,3.70
2023-04-03T05:44:07.704Z,3.45
2023-04-03T05:46:34.996Z,3.85
2023-04-03T05:49:07.131Z,3.72
2023-04-03T05:51:38.096Z,3.53
2023-04-03T05:54:35.290Z,3.75
2023-04-03T05:57:02.877Z,3.80
2023-04-03T05:59:30.173Z,3.50
2023-04-03T06:01:57.451Z,3.70
2023-04-03T06:04:24.935Z,3.20
2023-04-03T06:06:59.684Z,3.67
2023-04-03T06:09:30.200Z,3.42
2023-04-03T06:11:59.683Z,3.45
2023-04-03T06:14:27.587Z,3.28
2023-04-03T06:16:55.857Z,3.45
2023-04-03T06:19:27.547Z,3.72
2023-04-03T06:21:57.504Z,3.42
2023-04-03T06:24:26.156Z,3.30
2023-04-03T06:26:56.494Z,3.50
2023-04-03T06:29:24.261Z,3.40
2023-04-03T06:31:52.495Z,3.58
2023-04-03T06:34:19.806Z,3.60
2023-04-03T06:36:47.292Z,3.40
2023-04-03T06:39:23.185Z,3.38
2023-04-03T06:41:51.784Z,3.75
2023-04-03T06:44:19.321Z,3.92
2023-04-03T06:46:47.672Z,3.80
2023-04-03T06:49:15.988Z,3.65
2023-04-03T06:51:43.372Z,4.05
2023-04-03T06:54:10.738Z,3.92
2023-04-03T06:56:38.126Z,3.63
2023-04-03T06:59:05.675Z,4.05
2023-04-03T07:01:35.434Z,3.28
2023-04-03T07:04:05.188Z,3.78
2023-04-03T07:06:34.014Z,3.15
2023-04-03T07:09:01.726Z,3.40
2023-04-03T07:11:33.633Z,2.70
2023-04-03T07:14:03.878Z,2.70
2023-04-03T07:16:33.680Z,2.85
2023-04-03T07:19:03.936Z,2.83
2023-04-03T07:21:31.801Z,2.90
2023-04-03T07:24:01.632Z,2.70
2023-04-03T07:26:34.329Z,2.78
2023-04-03T07:29:04.138Z,2.67
2023-04-03T07:31:34.831Z,2.72
2023-04-03T07:34:02.360Z,2.83
2023-04-03T07:36:34.335Z,2.60
2023-04-03T07:39:04.125Z,2.40
2023-04-03T07:41:33.741Z,2.63
2023-04-03T07:44:01.628Z,2.85
2023-04-03T07:46:31.367Z,2.47
2023-04-03T07:48:58.845Z,2.83
2023-04-03T07:51:29.247Z,2.30
2023-04-03T07:53:58.973Z,2.80
2023-04-03T07:56:26.313Z,2.47
2023-04-03T07:58:54.633Z,2.60
2023-04-03T08:01:24.376Z,3.33
2023-04-03T08:03:51.991Z,3.45
2023-04-03T08:06:26.212Z,3.20
2023-04-03T08:09:00.608Z,3.00
2023-04-03T08:11:31.162Z,3.13
2023-04-03T08:13:59.134Z,2.78
2023-04-03T08:16:27.972Z,2.40
2023-04-03T08:18:56.095Z,2.13
2023-04-03T08:21:26.381Z,2.50
2023-04-03T08:23:55.898Z,2.30
2023-04-03T08:26:23.309Z,2.63
2023-04-03T08:28:51.131Z,2.20
2023-04-03T08:31:20.986Z,2.35
2023-04-03T08:33:53.054Z,2.53
2023-04-03T08:36:30.565Z,2.63
2023-04-03T08:38:58.407Z,3.05
2023-04-03T08:41:42.421Z,2.83
2023-04-03T08:44:34.172Z,3.03
2023-04-03T08:47:30.884Z,3.25
2023-04-03T08:50:11.079Z,3.20
2023-04-03T08:52:51.546Z,3.50
2023-04-03T08:55:22.060Z,3.35
2023-04-03T08:57:52.136Z,3.20
2023-04-03T09:00:23.489Z,3.20
2023-04-03T09:02:52.447Z,3.35
2023-04-03T09:05:26.654Z,3.28
2023-04-03T09:08:06.411Z,3.70
2023-04-03T09:10:39.050Z,3.85
2023-04-03T09:13:15.153Z,4.93
2023-04-03T09:15:42.997Z,3.70
2023-04-03T09:18:29.619Z,3.22
2023-04-03T09:21:22.113Z,3.85
2023-04-03T09:23:52.842Z,3.53
2023-04-03T09:26:37.745Z,3.10
2023-04-03T09:29:08.950Z,3.75
2023-04-03T09:31:42.594Z,3.38
2023-04-03T09:34:23.115Z,3.45
2023-04-03T09:36:56.634Z,3.45
2023-04-03T09:39:28.163Z,3.10
2023-04-03T09:42:00.589Z,3.58
2023-04-03T09:44:40.613Z,3.15
2023-04-03T09:47:20.302Z,2.47
2023-04-03T09:49:47.563Z,2.40
2023-04-03T09:52:27.412Z,4.30
2023-04-03T09:54:54.815Z,3.03
2023-04-03T09:57:34.493Z,4.75
2023-04-03T10:00:06.780Z,2.85
2023-04-03T10:02:37.709Z,2.40
2023-04-03T10:05:28.401Z,2.10
2023-04-03T10:08:25.004Z,2.70
2023-04-03T10:11:07.756Z,2.90
2023-04-03T10:13:48.685Z,2.30
2023-04-03T10:16:22.549Z,2.10
2023-04-03T10:19:16.810Z,2.00
2023-04-03T10:21:44.042Z,1.92
2023-04-03T10:24:21.961Z,2.33
2023-04-03T10:27:11.690Z,1.90
2023-04-03T10:29:49.746Z,2.30
2023-04-03T10:32:23.786Z,1.75
2023-04-03T10:35:14.629Z,2.10
2023-04-03T10:38:18.006Z,1.77
2023-04-03T10:41:04.178Z,2.30
2023-04-03T10:43:40.098Z,2.13
2023-04-03T10:46:12.155Z,1.90
2023-04-03T10:48:50.882Z,1.92
2023-04-03T10:51:36.484Z,2.30
2023-04-03T10:54:16.045Z,1.70
2023-04-03T10:57:04.571Z,1.70
2023-04-03T11:00:05.365Z,1.77
2023-04-03T11:02:53.811Z,1.50
2023-04-03T11:05:51.637Z,1.90
2023-04-03T11:08:24.552Z,2.00
2023-04-03T11:11:01.383Z,2.17
2023-04-03T11:13:34.647Z,1.80
2023-04-03T11:16:03.747Z,2.20
2023-04-03T11:18:49.519Z,1.55
2023-04-03T11:21:25.613Z,1.90
2023-04-03T11:23:54.770Z,2.00
2023-04-03T11:26:26.433Z,1.95
2023-04-03T11:29:01.099Z,2.30
2023-04-03T11:31:54.197Z,3.15
2023-04-03T11:34:46.669Z,2.13
2023-04-03T11:37:19.127Z,2.42
2023-04-03T11:39:59.331Z,1.90
2023-04-03T11:42:29.547Z,1.67
2023-04-03T11:45:35.610Z,1.98
2023-04-03T11:48:28.191Z,2.38
2023-04-03T11:50:57.749Z,2.90
2023-04-03T11:53:30.726Z,3.10
2023-04-03T11:56:04.910Z,4.70
2023-04-03T11:58:34.698Z,4.15
2023-04-03T12:01:07.848Z,3.78
2023-04-03T12:03:58.833Z,2.60
2023-04-03T12:06:28.723Z,6.15
2023-04-03T12:08:57.563Z,3.65
2023-04-03T12:11:31.892Z,3.08
2023-04-03T12:13:59.088Z,3.03
2023-04-03T12:16:30.664Z,2.80
2023-04-03T12:19:05.208Z,2.78
2023-04-03T12:21:47.663Z,2.47
2023-04-03T12:24:18.056Z,2.33
2023-04-03T12:27:01.121Z,2.22
2023-04-03T12:29:34.468Z,1.70
2023-04-03T12:32:08.407Z,2.63
2023-04-03T12:34:47.481Z,2.88
2023-04-03T12:37:45.763Z,2.20
2023-04-03T12:40:39.882Z,2.90
2023-04-03T12:43:41.137Z,2.30
2023-04-03T12:46:08.424Z,2.13
2023-04-03T12:48:45.959Z,2.20
2023-04-03T12:51:36.986Z,2.63
2023-04-03T12:54:30.085Z,2.28
2023-04-03T12:57:17.995Z,2.03
2023-04-03T12:59:47.563Z,1.95
2023-04-03T13:02:31.097Z,2.00
2023-04-03T13:05:10.242Z,2.03
2023-04-03T13:07:41.979Z,2.03
2023-04-03T13:12:53.145Z,2.25
2023-04-03T13:15:28.133Z,2.10
2023-04-03T13:17:58.578Z,2.45
2023-04-03T13:20:32.449Z,2.78
2023-04-03T13:23:05.457Z,2.10
2023-04-03T13:25:38.022Z,2.15
2023-04-03T13:28:14.203Z,1.98
2023-04-03T13:30:55.574Z,1.77
2023-04-03T13:33:26.621Z,2.00
2023-04-03T13:36:01.616Z,2.03
2023-04-03T13:38:33.940Z,1.70
2023-04-03T13:41:22.872Z,1.80
2023-04-03T13:43:55.477Z,1.67
2023-04-03T13:46:32.157Z,2.05
2023-04-03T13:49:17.838Z,1.92
2023-04-03T13:51:47.698Z,1.77
2023-04-03T13:54:23.831Z,2.38
2023-04-03T13:56:58.225Z,1.90
2023-04-03T13:59:33.799Z,2.05
2023-04-03T14:02:04.131Z,2.00
2023-04-03T14:04:34.033Z,2.45
2023-04-03T14:07:01.489Z,2.10
2023-04-03T14:09:28.867Z,2.10
2023-04-03T14:12:11.355Z,2.03
2023-04-03T14:14:50.721Z,1.67
2023-04-03T14:17:25.247Z,2.17
2023-04-03T14:19:54.285Z,2.05
2023-04-03T14:22:27.257Z,2.00
2023-04-03T14:25:00.050Z,1.90
2023-04-03T14:27:35.941Z,2.20
2023-04-03T14:30:05.092Z,2.30
2023-04-03T14:32:32.532Z,2.28
2023-04-03T14:35:02.029Z,1.88
2023-04-03T14:37:31.407Z,2.17
2023-04-03T14:40:01.397Z,1.95
2023-04-03T14:42:32.573Z,1.83
2023-04-03T14:45:12.198Z,2.20
2023-04-03T14:47:48.588Z,2.03
2023-04-03T14:50:19.321Z,2.10
2023-04-03T14:52:46.630Z,2.20
2023-04-03T14:55:19.386Z,2.22
2023-04-03T14:57:52.024Z,2.15
2023-04-03T15:00:21.757Z,2.35
2023-04-03T15:02:51.601Z,2.00
2023-04-03T15:05:21.276Z,1.98
2023-04-03T15:07:53.510Z,2.20
2023-04-03T15:10:24.673Z,2.33
2023-04-03T15:12:53.305Z,2.03
2023-04-03T15:15:24.495Z,2.40
2023-04-03T15:17:58.990Z,2.28
2023-04-03T15:20:31.369Z,2.35
2023-04-03T15:23:01.706Z,2.17
2023-04-03T15:25:32.474Z,2.10
2023-04-03T15:28:04.780Z,2.37
2023-04-03T15:30:32.352Z,2.35
2023-04-03T15:32:59.613Z,2.55
2023-04-03T15:35:29.270Z,2.10
2023-04-03T15:37:56.576Z,2.03
2023-04-03T15:40:26.741Z,2.17
2023-04-03T15:42:54.543Z,2.00
2023-04-03T15:45:24.351Z,2.00
2023-04-03T15:47:52.355Z,2.22
2023-04-03T15:50:20.110Z,2.05
2023-04-03T15:52:54.990Z,2.25
2023-04-03T15:55:23.897Z,2.50
2023-04-03T15:57:51.527Z,2.38
2023-04-03T16:00:21.617Z,2.00
2023-04-03T16:02:54.272Z,2.20
2023-04-03T16:05:21.840Z,2.22
2023-04-03T16:07:51.973Z,3.10
2023-04-03T16:10:19.371Z,2.55
2023-04-03T16:12:46.991Z,2.22
2023-04-03T16:15:14.525Z,2.20
2023-04-03T16:17:44.538Z,2.50
2023-04-03T16:20:14.947Z,2.38
2023-04-03T16:22:43.076Z,2.45
2023-04-03T16:25:11.221Z,2.10
2023-04-03T16:27:39.113Z,2.53
2023-04-03T16:30:07.982Z,2.35
2023-04-03T16:32:35.908Z,2.22
2023-04-03T16:35:03.715Z,2.40
2023-04-03T16:37:32.654Z,2.55
2023-04-03T16:40:03.968Z,2.70
2023-04-03T16:42:31.243Z,2.50
2023-04-03T16:44:59.838Z,2.38
2023-04-03T16:47:27.118Z,2.40
2023-04-03T16:49:54.508Z,2.47
2023-04-03T16:52:24.242Z,2.40
2023-04-03T16:54:56.274Z,2.60
2023-04-03T16:57:26.345Z,2.50
2023-04-03T16:59:56.968Z,2.92
2023-04-03T17:02:28.985Z,2.85
2023-04-03T17:04:56.337Z,2.50
2023-04-03T17:07:25.347Z,2.67
2023-04-03T17:09:55.508Z,3.15
2023-04-03T17:12:23.302Z,2.40
2023-04-03T17:14:50.923Z,2.83
2023-04-03T17:17:23.611Z,3.90
2023-04-03T17:19:54.927Z,2.90
2023-04-03T17:22:22.247Z,3.20
2023-04-03T17:24:49.575Z,2.63
2023-04-03T17:27:16.907Z,3.30
2023-04-03T17:29:44.140Z,2.90
2023-04-03T17:32:11.601Z,3.10
2023-04-03T17:34:39.905Z,4.05
2023-04-03T17:37:09.756Z,2.65
2023-04-03T17:39:39.482Z,2.80
2023-04-03T17:42:08.984Z,2.40
2023-04-03T17:44:38.520Z,2.63
2023-04-03T17:47:05.808Z,2.47
2023-04-03T17:49:33.508Z,2.60
2023-04-03T17:52:00.898Z,2.70
2023-04-03T17:54:28.173Z,2.47
2023-04-03T17:56:58.031Z,3.00
2023-04-03T17:59:28.328Z,3.05
2023-04-03T18:01:56.863Z,2.75
2023-04-03T18:04:25.241Z,3.05
2023-04-03T18:06:55.463Z,3.03
2023-04-03T18:09:31.378Z,2.85
2023-04-03T18:12:00.665Z,3.08
2023-04-03T18:14:28.515Z,2.88
2023-04-03T18:16:58.853Z,2.95
2023-04-03T18:19:28.430Z,3.17
2023-04-03T18:22:03.259Z,3.00
2023-04-03T18:24:37.120Z,2.83
2023-04-03T18:27:14.135Z,2.60
2023-04-03T18:29:43.836Z,3.05
2023-04-03T18:32:14.742Z,2.40
2023-04-03T18:34:44.896Z,2.80
2023-04-03T18:37:15.497Z,2.83
2023-04-03T18:39:43.193Z,2.60
2023-04-03T18:42:15.288Z,3.15
2023-04-03T18:44:45.589Z,2.60
2023-04-03T18:47:13.142Z,2.45
2023-04-03T18:49:42.708Z,2.40
2023-04-03T18:52:12.034Z,2.85
2023-04-03T18:54:39.531Z,2.85
2023-04-03T18:57:09.446Z,2.83
2023-04-03T18:59:37.572Z,2.80
2023-04-03T19:02:11.391Z,3.25
2023-04-03T19:04:41.005Z,3.38
2023-04-03T19:07:10.234Z,2.90
2023-04-03T19:09:42.923Z,3.60
2023-04-03T19:12:10.209Z,3.38
2023-04-03T19:14:37.419Z,3.20
2023-04-03T19:17:08.239Z,3.10
2023-04-03T19:19:35.707Z,3.30
2023-04-03T19:22:03.035Z,3.00
2023-04-03T19:24:30.536Z,3.28
2023-04-03T19:26:57.786Z,3.47
2023-04-03T19:29:25.156Z,3.00
2023-04-03T19:31:54.701Z,2.88
2023-04-03T19:34:22.038Z,5.63
2023-04-03T19:36:52.179Z,4.15
2023-04-03T19:39:19.541Z,5.63
2023-04-03T19:41:47.077Z,4.10
2023-04-03T19:44:16.776Z,3.00
2023-04-03T19:46:51.558Z,3.72
2023-04-03T19:49:25.005Z,3.35
2023-04-03T19:51:53.421Z,2.83
2023-04-03T19:54:23.708Z,2.90
2023-04-03T19:56:57.824Z,2.95
2023-04-03T19:59:25.149Z,3.55
2023-04-03T20:01:52.994Z,3.70
2023-04-03T20:04:22.803Z,3.00
2023-04-03T20:06:50.787Z,3.00
2023-04-03T20:09:21.876Z,2.83
2023-04-03T20:11:49.124Z,3.70
2023-04-03T20:14:17.490Z,3.40
2023-04-03T20:16:48.464Z,2.75
2023-04-03T20:19:16.759Z,2.85
2023-04-03T20:21:49.011Z,2.88
2023-04-03T20:24:18.544Z,2.65
2023-04-03T20:26:47.274Z,3.15
2023-04-03T20:29:16.570Z,2.60
2023-04-03T20:31:44.201Z,2.90
2023-04-03T20:34:11.821Z,2.85
2023-04-03T20:36:41.667Z,2.70
2023-04-03T20:39:11.575Z,2.30
2023-04-03T20:41:39.403Z,2.85
2023-04-03T20:44:09.234Z,3.08
2023-04-03T20:46:51.432Z,3.10
2023-04-03T20:49:20.810Z,3.22
2023-04-03T20:51:51.213Z,3.08
2023-04-03T20:54:19.154Z,3.05
2023-04-03T20:56:51.436Z,3.28
2023-04-03T20:59:19.216Z,2.80
2023-04-03T21:01:49.925Z,3.28
2023-04-03T21:04:27.593Z,2.80
2023-04-03T21:07:32.766Z,2.22
2023-04-03T21:10:40.349Z,2.72
2023-04-03T21:13:46.519Z,2.60
2023-04-03T21:16:13.735Z,2.40
2023-04-03T21:18:48.443Z,2.42
2023-04-03T21:21:24.550Z,2.47
2023-04-03T21:23:54.062Z,2.80
2023-04-03T21:26:22.373Z,2.80
2023-04-03T21:28:55.917Z,2.60
2023-04-03T21:31:23.763Z,2.53
2023-04-03T21:33:51.446Z,2.75
2023-04-03T21:36:18.757Z,2.55
2023-04-03T21:38:47.739Z,2.60
2023-04-03T21:41:17.508Z,2.50
2023-04-03T21:43:47.017Z,2.88
2023-04-03T21:46:14.356Z,2.65
2023-04-03T21:48:41.677Z,3.00
2023-04-03T21:51:11.756Z,2.45
2023-04-03T21:53:41.979Z,2.97
2023-04-03T21:56:11.454Z,2.55
2023-04-03T21:58:38.791Z,2.50
2023-04-03T22:01:12.733Z,2.55
2023-04-03T22:03:44.101Z,3.05
2023-04-03T22:06:16.266Z,2.88
2023-04-03T22:08:44.214Z,2.53
2023-04-03T22:11:16.484Z,2.72
2023-04-03T22:13:50.948Z,2.83
2023-04-03T22:16:18.329Z,2.97
2023-04-03T22:18:45.793Z,2.42
2023-04-03T22:21:13.043Z,2.60
2023-04-03T22:23:40.282Z,2.63
2023-04-03T22:26:11.769Z,2.30
2023-04-03T22:28:44.195Z,2.17
2023-04-03T22:31:17.171Z,2.80
2023-04-03T22:33:47.928Z,2.40
2023-04-03T22:36:15.574Z,2.60
2023-04-03T22:38:46.823Z,2.40
2023-04-03T22:41:16.532Z,2.33
2023-04-03T22:43:43.812Z,2.33
2023-04-03T22:46:11.183Z,2.58
2023-04-03T22:48:42.469Z,2.28
2023-04-03T22:51:12.543Z,2.22
2023-04-03T22:53:42.365Z,2.20
2023-04-03T22:56:13.108Z,2.50
2023-04-03T22:58:40.478Z,2.40
2023-04-03T23:01:15.052Z,2.45
2023-04-03T23:03:43.123Z,2.38
2023-04-03T23:06:10.903Z,2.40
2023-04-03T23:08:38.790Z,2.30
2023-04-03T23:11:12.150Z,2.20
2023-04-03T23:13:43.643Z,2.42
2023-04-03T23:16:11.930Z,1.98
2023-04-03T23:18:40.115Z,2.10
2023-04-03T23:21:09.876Z,2.40
2023-04-03T23:23:37.154Z,2.10
2023-04-03T23:26:04.622Z,2.25
2023-04-03T23:28:34.474Z,2.30
2023-04-03T23:31:06.860Z,2.22
2023-04-03T23:33:36.575Z,2.50
2023-04-03T23:36:08.162Z,2.25
2023-04-03T23:38:38.557Z,2.30
2023-04-03T23:41:06.263Z,2.78
2023-04-03T23:43:37.079Z,2.25
2023-04-03T23:46:04.431Z,2.73
2023-04-03T23:48:34.154Z,2.28
2023-04-03T23:51:03.797Z,2.22
2023-04-03T23:53:33.573Z,2.67
2023-04-03T23:56:00.819Z,2.30
2023-04-03T23:58:28.093Z,2.63
